Time;durP1;ratioP1;P1;durP2;ratioP2;P2;SDS_P1;SDS_P2;PMS_P1;PMS_P2;Temp;Humidity;BMP_temperature;BMP_pressure;BME280_temperature;BME280_humidity;BME280_pressure;Samples;Min_cycle;Max_cycle;Signal;HPM_P1;HPM_P2
2022/05/30 00:01:07;;;;;;;7.68;4.13;;;;;;;18.58;100.00;99239.88;5090259;28;20304;-69
2022/05/30 00:03:36;;;;;;;6.15;5.05;;;;;;;18.68;100.00;99238.69;5059669;28;20629;-70
2022/05/30 00:06:02;;;;;;;7.28;3.67;;;;;;;18.49;100.00;99213.88;5061520;28;20654;-70
2022/05/30 00:08:29;;;;;;;6.03;4.43;;;;;;;18.54;100.00;99212.00;5074678;28;20230;-70
2022/05/30 00:10:56;;;;;;;5.22;4.07;;;;;;;18.72;100.00;99240.31;5071437;28;20203;-71
2022/05/30 00:13:23;;;;;;;5.93;4.28;;;;;;;18.14;100.00;99150.22;5069743;28;20207;-70
2022/05/30 00:15:49;;;;;;;11.27;5.32;;;;;;;18.65;100.00;99215.16;5056386;28;20203;-70
2022/05/30 00:18:16;;;;;;;5.85;5.22;;;;;;;18.75;100.00;99211.31;5071351;28;20206;-70
2022/05/30 00:20:48;;;;;;;9.95;6.40;;;;;;;18.83;100.00;99214.56;5071087;28;20219;-70
2022/05/30 00:23:15;;;;;;;6.75;5.38;;;;;;;18.47;100.00;99216.56;5080113;28;20202;-70
2022/05/30 00:25:42;;;;;;;7.22;5.07;;;;;;;18.61;100.00;99210.91;5087627;28;20199;-70
2022/05/30 00:28:10;;;;;;;9.43;6.38;;;;;;;18.70;100.00;99213.22;5031592;28;20202;-71
2022/05/30 00:30:37;;;;;;;9.07;7.18;;;;;;;18.70;100.00;99224.59;5089082;28;20232;-73
2022/05/30 00:33:04;;;;;;;10.32;6.55;;;;;;;18.70;100.00;99223.72;5066973;28;20221;-70
2022/05/30 00:35:31;;;;;;;11.63;7.68;;;;;;;18.67;100.00;99223.81;5080299;28;20202;-70
2022/05/30 00:37:59;;;;;;;9.93;6.85;;;;;;;18.86;100.00;99219.72;5074895;28;20240;-70
2022/05/30 00:40:26;;;;;;;13.35;7.40;;;;;;;18.82;100.00;99218.09;5068462;28;20930;-71
2022/05/30 00:42:52;;;;;;;8.88;7.00;;;;;;;18.81;100.00;99230.38;5070927;28;20198;-72
2022/05/30 00:45:19;;;;;;;12.38;7.05;;;;;;;18.74;100.00;99220.09;5070144;28;20210;-70
2022/05/30 00:47:47;;;;;;;11.90;8.38;;;;;;;18.92;100.00;99240.53;5069617;28;20206;-69
2022/05/30 00:50:14;;;;;;;15.10;7.90;;;;;;;18.90;100.00;99241.50;5077685;28;20198;-70
2022/05/30 00:52:44;;;;;;;11.88;6.28;;;;;;;18.90;100.00;99242.34;5080744;28;20248;-71
2022/05/30 00:55:15;;;;;;;7.70;5.70;;;;;;;18.76;100.00;99260.31;5074773;28;20202;-71
2022/05/30 00:57:44;;;;;;;10.43;6.15;;;;;;;18.73;100.00;99265.66;5071876;28;20590;-72
2022/05/30 01:00:17;;;;;;;7.28;6.10;;;;;;;18.69;100.00;99277.19;5071121;28;20215;-72
2022/05/30 01:02:44;;;;;;;4.93;4.43;;;;;;;18.65;100.00;99288.69;5088665;28;20194;-72
2022/05/30 01:07:59;;;;;;;8.35;4.38;;;;;;;18.44;100.00;99307.66;5051383;28;20621;-72
2022/05/30 01:10:28;;;;;;;10.77;6.10;;;;;;;18.23;100.00;99273.25;5074906;28;20190;-72
2022/05/30 01:12:56;;;;;;;10.55;5.57;;;;;;;18.56;100.00;99315.19;5090959;28;20190;-72
2022/05/30 01:15:26;;;;;;;7.07;5.20;;;;;;;18.67;100.00;99292.09;5090462;28;20186;-70
2022/05/30 01:17:58;;;;;;;6.82;4.97;;;;;;;18.78;100.00;99316.28;5090074;28;20198;-71
2022/05/30 01:20:35;;;;;;;8.48;5.80;;;;;;;18.75;100.00;99312.00;5088441;28;20220;-71
2022/05/30 01:23:47;;;;;;;7.65;6.00;;;;;;;18.80;100.00;99304.81;5089089;28;20288;-71
2022/05/30 01:26:38;;;;;;;7.63;5.50;;;;;;;18.73;100.00;99303.28;5021922;28;20192;-71
2022/05/30 01:29:12;;;;;;;10.00;5.80;;;;;;;18.87;100.00;99304.63;5027573;28;20200;-71
2022/05/30 01:31:39;;;;;;;8.55;6.13;;;;;;;18.90;100.00;99309.78;5026235;28;20223;-70
2022/05/30 01:34:06;;;;;;;9.38;5.97;;;;;;;18.93;100.00;99315.81;5017472;28;20193;-70
2022/05/30 01:36:34;;;;;;;12.05;6.50;;;;;;;18.87;100.00;99310.72;5008458;28;20197;-70
2022/05/30 01:39:01;;;;;;;7.35;6.50;;;;;;;19.05;100.00;99314.56;5008064;28;20231;-70
2022/05/30 01:41:28;;;;;;;11.13;6.28;;;;;;;18.90;100.00;99310.66;4954993;28;20225;-70
2022/05/30 01:43:55;;;;;;;10.30;5.80;;;;;;;19.07;100.00;99318.88;5002793;28;20205;-71
2022/05/30 01:46:26;;;;;;;7.28;6.25;;;;;;;19.14;100.00;99320.41;5024784;28;20192;-70
2022/05/30 01:48:53;;;;;;;15.43;6.47;;;;;;;19.05;100.00;99318.03;5021777;28;20206;-70
2022/05/30 01:51:21;;;;;;;9.10;6.38;;;;;;;19.10;100.00;99317.91;5008081;28;20966;-70
2022/05/30 01:53:49;;;;;;;12.98;6.72;;;;;;;19.07;100.00;99320.63;5007288;28;20993;-70
2022/05/30 01:56:16;;;;;;;11.02;6.70;;;;;;;19.15;100.00;99316.88;5014813;28;20580;-71
2022/05/30 01:58:43;;;;;;;11.30;6.40;;;;;;;19.34;100.00;99338.13;5016333;28;20659;-70
2022/05/30 02:01:17;;;;;;;13.60;6.00;;;;;;;19.53;100.00;99338.44;5017255;28;20220;-71
2022/05/30 02:03:47;;;;;;;12.38;5.88;;;;;;;19.37;100.00;99338.03;5061354;28;20283;-71
2022/05/30 02:06:14;;;;;;;11.90;6.03;;;;;;;19.27;100.00;99350.63;5063028;28;20279;-71
2022/05/30 02:08:40;;;;;;;8.43;5.68;;;;;;;19.37;100.00;99347.72;5069725;28;20226;-70
2022/05/30 02:11:08;;;;;;;6.07;5.47;;;;;;;19.44;100.00;99358.00;5069663;28;20268;-71
2022/05/30 02:13:35;;;;;;;10.40;6.18;;;;;;;19.49;100.00;99356.09;5082906;28;20205;-71
2022/05/30 02:18:49;;;;;;;6.72;5.53;;;;;;;19.51;100.00;99342.91;5089341;28;20677;-71
2022/05/30 02:21:16;;;;;;;9.00;5.80;;;;;;;19.43;100.00;99347.53;5089157;28;20333;-70
2022/05/30 02:23:44;;;;;;;7.40;6.03;;;;;;;19.44;100.00;99329.06;5086435;28;20195;-70
2022/05/30 02:26:11;;;;;;;7.38;5.43;;;;;;;19.53;100.00;99335.81;5079216;28;20202;-71
2022/05/30 02:28:38;;;;;;;7.07;5.32;;;;;;;19.68;100.00;99348.44;5083769;28;20565;-70
2022/05/30 02:31:05;;;;;;;6.13;5.57;;;;;;;19.22;100.00;99302.63;5073541;28;20198;-70
2022/05/30 02:39:02;;;;;;;9.27;6.25;;;;;;;19.24;100.00;99345.47;5066634;28;20908;-70
2022/05/30 02:41:29;;;;;;;7.97;6.50;;;;;;;18.91;100.00;99354.38;5085609;28;20229;-70
2022/05/30 02:43:56;;;;;;;11.93;5.75;;;;;;;18.95;100.00;99350.75;5041279;28;20641;-70
2022/05/30 02:46:22;;;;;;;7.10;5.57;;;;;;;19.09;100.00;99350.34;5073484;28;20197;-70
2022/05/30 02:48:49;;;;;;;6.07;5.47;;;;;;;19.12;100.00;99360.78;5072991;28;20206;-70
2022/05/30 02:51:18;;;;;;;10.10;6.15;;;;;;;19.08;100.00;99354.75;5072728;28;20278;-70
2022/05/30 02:53:44;;;;;;;10.60;6.15;;;;;;;19.17;100.00;99357.09;5084483;28;20202;-70
2022/05/30 02:56:12;;;;;;;7.13;5.07;;;;;;;19.08;100.00;99340.75;5079439;28;20199;-70
2022/05/30 02:58:39;;;;;;;8.05;5.80;;;;;;;19.15;100.00;99358.06;5085736;28;20220;-70
2022/05/30 03:01:05;;;;;;;8.35;6.50;;;;;;;19.18;100.00;99350.94;5091017;28;20245;-70
2022/05/30 03:03:32;;;;;;;8.80;6.38;;;;;;;19.16;100.00;99344.84;5056324;28;20199;-70
2022/05/30 03:05:59;;;;;;;12.60;6.47;;;;;;;19.37;100.00;99368.75;5073858;28;20248;-70
2022/05/30 03:08:27;;;;;;;10.63;5.60;;;;;;;19.54;100.00;99371.72;5072718;28;20234;-70
2022/05/30 03:10:54;;;;;;;11.88;6.20;;;;;;;19.40;100.00;99368.66;5072513;28;20856;-70
2022/05/30 03:13:21;;;;;;;9.95;6.10;;;;;;;19.22;100.00;99364.84;5072399;28;20739;-70
2022/05/30 03:15:48;;;;;;;9.32;5.93;;;;;;;19.16;100.00;99383.41;5072259;28;20199;-70
2022/05/30 03:18:14;;;;;;;13.68;6.47;;;;;;;19.23;100.00;99383.16;5037337;28;20256;-70
2022/05/30 03:20:41;;;;;;;8.18;6.75;;;;;;;19.28;100.00;99381.25;5071389;28;20219;-70
2022/05/30 03:23:08;;;;;;;9.68;7.07;;;;;;;19.27;100.00;99390.06;5072447;28;20199;-70
2022/05/30 03:25:37;;;;;;;7.55;6.63;;;;;;;19.31;100.00;99391.69;5072243;28;20202;-70
2022/05/30 03:28:04;;;;;;;9.77;6.18;;;;;;;19.29;100.00;99392.66;5072043;28;20747;-70
2022/05/30 03:30:36;;;;;;;11.82;7.60;;;;;;;19.43;100.00;99390.47;5071852;28;20206;-70
2022/05/30 03:33:03;;;;;;;17.25;6.88;;;;;;;19.41;100.00;99391.38;5072238;28;20232;-70
2022/05/30 03:35:30;;;;;;;7.78;6.50;;;;;;;19.20;100.00;99393.78;5084364;28;20205;-72
2022/05/30 03:37:57;;;;;;;9.00;6.60;;;;;;;19.28;100.00;99409.31;5045941;28;20202;-70
2022/05/30 03:40:24;;;;;;;11.18;7.38;;;;;;;19.40;100.00;99411.56;5074293;28;20598;-70
2022/05/30 03:42:52;;;;;;;11.27;7.45;;;;;;;19.29;100.00;99414.53;5090774;28;20206;-70
2022/05/30 03:45:19;;;;;;;15.30;7.53;;;;;;;19.00;100.00;99341.00;5080184;28;20194;-71
2022/05/30 03:47:47;;;;;;;10.07;7.68;;;;;;;19.42;100.00;99414.16;5070710;28;20241;-70
2022/05/30 03:50:19;;;;;;;10.02;8.15;;;;;;;19.50;100.00;99417.44;5072837;28;20209;-73
2022/05/30 03:52:45;;;;;;;13.57;9.00;;;;;;;19.33;100.00;99424.94;5071406;28;20231;-71
2022/05/30 03:55:15;;;;;;;10.55;8.18;;;;;;;19.44;100.00;99428.16;5086765;28;20650;-71
2022/05/30 03:57:43;;;;;;;10.88;7.80;;;;;;;19.50;100.00;99427.94;5080879;28;20660;-71
2022/05/30 04:00:15;;;;;;;11.75;7.07;;;;;;;19.24;100.00;99405.06;5091661;28;20197;-70
2022/05/30 04:02:42;;;;;;;6.60;5.70;;;;;;;19.33;100.00;99431.06;5090051;28;20223;-70
2022/05/30 04:05:11;;;;;;;10.25;7.32;;;;;;;19.53;100.00;99433.09;5082260;28;20194;-71
2022/05/30 04:07:38;;;;;;;10.80;7.15;;;;;;;19.59;100.00;99432.91;5071035;28;20226;-71
2022/05/30 04:10:06;;;;;;;9.15;7.85;;;;;;;19.64;100.00;99431.00;5080595;28;20202;-71
2022/05/30 04:12:33;;;;;;;6.63;5.80;;;;;;;19.25;100.00;99373.47;5052218;28;20200;-71
2022/05/30 04:15:01;;;;;;;8.75;6.45;;;;;;;19.59;100.00;99428.50;5050149;28;20199;-71
2022/05/30 04:17:32;;;;;;;11.13;6.72;;;;;;;19.70;100.00;99463.22;5072435;28;20214;-72
2022/05/30 04:19:59;;;;;;;8.63;7.32;;;;;;;19.82;100.00;99466.38;5059001;28;20288;-70
2022/05/30 04:22:26;;;;;;;11.10;7.78;;;;;;;19.91;100.00;99474.81;5067911;28;20659;-71
2022/05/30 04:24:53;;;;;;;11.88;7.93;;;;;;;19.67;100.00;99473.84;5051889;28;20248;-71
2022/05/30 04:27:20;;;;;;;10.98;8.68;;;;;;;19.60;100.00;99477.56;5068974;28;20187;-71
2022/05/30 04:29:48;;;;;;;11.95;8.00;;;;;;;19.52;100.00;99479.56;5074181;28;20202;-74
2022/05/30 04:32:17;;;;;;;15.07;9.98;;;;;;;19.74;100.00;99496.41;5072337;28;20202;-71
2022/05/30 04:34:46;;;;;;;10.57;7.53;;;;;;;19.33;100.00;99489.75;5070748;28;20646;-70
2022/05/30 04:37:13;;;;;;;13.20;8.20;;;;;;;19.39;100.00;99487.84;5070214;28;20199;-69
2022/05/30 04:39:40;;;;;;;14.63;8.85;;;;;;;19.12;100.00;99485.13;5069865;28;20198;-68
2022/05/30 04:42:07;;;;;;;12.25;8.73;;;;;;;19.28;100.00;99481.16;5085046;28;20236;-68
2022/05/30 04:44:35;;;;;;;16.83;11.48;;;;;;;19.57;100.00;99476.81;5071705;28;20191;-69
2022/05/30 04:47:02;;;;;;;11.00;9.25;;;;;;;19.83;100.00;99486.50;5071768;28;20207;-71
2022/05/30 04:49:29;;;;;;;10.02;6.70;;;;;;;19.52;100.00;99494.47;5018769;28;20358;-69
2022/05/30 04:51:58;;;;;;;7.45;6.65;;;;;;;19.92;100.00;99497.59;5065072;28;20213;-71
2022/05/30 04:54:25;;;;;;;14.30;7.93;;;;;;;20.17;100.00;99510.81;5067489;28;20202;-70
2022/05/30 04:56:52;;;;;;;11.48;8.45;;;;;;;20.37;100.00;99518.09;5069964;28;20238;-71
2022/05/30 04:59:19;;;;;;;10.13;7.95;;;;;;;20.33;100.00;99529.63;5066562;28;20693;-71
2022/05/30 05:01:46;;;;;;;15.88;8.40;;;;;;;20.40;100.00;99512.72;5051841;28;20303;-71
2022/05/30 05:04:13;;;;;;;11.23;7.70;;;;;;;20.65;100.00;99538.13;5079089;28;20198;-70
2022/05/30 05:06:43;;;;;;;9.38;7.45;;;;;;;20.80;100.00;99534.13;5083807;28;20711;-71
2022/05/30 05:09:29;;;;;;;8.15;6.32;;;;;;;20.56;100.00;99546.38;5070142;28;20241;-72
2022/05/30 05:11:55;;;;;;;17.00;8.55;;;;;;;20.56;100.00;99550.78;5054458;28;20213;-71
2022/05/30 05:14:23;;;;;;;11.23;7.65;;;;;;;20.32;100.00;99536.69;5069721;28;20841;-72
2022/05/30 05:16:49;;;;;;;14.23;7.85;;;;;;;20.53;100.00;99553.53;5067479;28;20298;-72
2022/05/30 05:19:16;;;;;;;11.30;7.47;;;;;;;20.80;100.00;99533.28;5070436;28;20203;-72
2022/05/30 05:21:46;;;;;;;14.90;8.00;;;;;;;21.58;100.00;99559.38;5067400;28;20248;-74
2022/05/30 05:24:15;;;;;;;9.73;7.60;;;;;;;21.92;100.00;99574.81;5067485;28;20281;-73
2022/05/30 05:26:49;;;;;;;8.38;7.15;;;;;;;21.75;100.00;99554.34;5049504;28;20319;-73
2022/05/30 05:29:17;;;;;;;10.50;7.38;;;;;;;21.47;100.00;99511.47;5075744;28;20235;-71
2022/05/30 05:31:45;;;;;;;31.52;17.67;;;;;;;21.96;100.00;99547.38;5059905;28;20214;-71
2022/05/30 05:34:13;;;;;;;9.18;7.25;;;;;;;22.05;100.00;99583.09;5059978;28;20191;-70
2022/05/30 05:36:44;;;;;;;9.45;7.82;;;;;;;22.11;100.00;99593.44;5070321;28;20764;-71
2022/05/30 05:39:11;;;;;;;29.38;17.50;;;;;;;21.85;100.00;99580.34;5070673;28;20199;-71
2022/05/30 05:41:40;;;;;;;12.10;7.90;;;;;;;21.67;100.00;99587.19;5034619;28;20227;-71
2022/05/30 05:44:09;;;;;;;10.00;7.40;;;;;;;21.70;100.00;99590.56;5034565;28;20206;-72
2022/05/30 05:46:36;;;;;;;18.05;11.25;;;;;;;21.79;100.00;99596.44;5072330;28;20198;-73
2022/05/30 05:49:03;;;;;;;16.55;7.82;;;;;;;21.82;100.00;99602.47;5089718;28;20213;-72
2022/05/30 05:51:30;;;;;;;10.15;7.05;;;;;;;21.83;100.00;99592.75;5089553;28;20263;-72
2022/05/30 05:53:57;;;;;;;10.02;7.10;;;;;;;21.89;100.00;99598.66;5041534;28;20252;-72
2022/05/30 05:56:27;;;;;;;15.38;8.00;;;;;;;22.05;100.00;99610.34;5070211;28;20199;-72
2022/05/30 05:58:54;;;;;;;9.95;8.00;;;;;;;22.18;100.00;99610.75;5070023;28;20195;-72
2022/05/30 06:01:24;;;;;;;7.82;7.03;;;;;;;22.29;100.00;99612.97;5069739;28;20288;-72
2022/05/30 06:03:53;;;;;;;13.00;7.32;;;;;;;22.05;100.00;99609.50;5069747;28;20247;-72
2022/05/30 06:06:20;;;;;;;12.18;7.60;;;;;;;22.27;100.00;99612.16;5071507;28;20268;-72
2022/05/30 06:08:47;;;;;;;13.40;8.15;;;;;;;22.54;100.00;99613.69;5054284;28;20759;-73
2022/05/30 06:11:15;;;;;;;14.18;7.72;;;;;;;22.77;100.00;99623.31;5073701;28;20203;-73
2022/05/30 06:13:44;;;;;;;10.48;7.53;;;;;;;22.09;100.00;99619.03;5073673;28;20277;-73
2022/05/30 06:16:13;;;;;;;13.27;7.85;;;;;;;21.87;100.00;99610.22;5073583;28;20222;-72
2022/05/30 06:18:41;;;;;;;13.27;7.28;;;;;;;22.18;100.00;99608.97;5073213;28;20199;-72
2022/05/30 06:21:09;;;;;;;16.25;8.23;;;;;;;22.15;100.00;99632.00;5073919;28;20234;-72
2022/05/30 06:23:36;;;;;;;8.68;7.45;;;;;;;22.15;100.00;99627.56;5073739;28;20205;-73
2022/05/30 06:26:05;;;;;;;11.52;7.72;;;;;;;22.49;100.00;99631.50;5072686;28;20194;-73
2022/05/30 06:28:32;;;;;;;12.38;8.40;;;;;;;22.46;100.00;99632.50;5072594;28;20206;-73
2022/05/30 06:30:59;;;;;;;10.18;7.57;;;;;;;22.44;100.00;99631.69;5052502;28;20202;-72
2022/05/30 06:33:25;;;;;;;13.35;7.63;;;;;;;22.85;100.00;99643.25;5072972;28;20206;-73
2022/05/30 06:35:54;;;;;;;12.73;7.85;;;;;;;22.98;100.00;99644.44;5068763;28;20218;-72
2022/05/30 06:38:20;;;;;;;9.18;6.85;;;;;;;23.05;100.00;99652.97;5072206;28;20211;-73
2022/05/30 06:40:47;;;;;;;7.82;6.68;;;;;;;22.82;100.00;99632.78;5072961;28;20199;-73
2022/05/30 06:43:14;;;;;;;12.82;7.80;;;;;;;22.49;100.00;99671.13;5066385;28;20211;-74
2022/05/30 06:45:46;;;;;;;9.02;7.03;;;;;;;22.09;100.00;99682.41;5065858;28;20198;-72
2022/05/30 06:48:13;;;;;;;7.88;7.05;;;;;;;22.00;100.00;99670.44;5054436;28;20259;-72
2022/05/30 06:50:40;;;;;;;12.88;7.35;;;;;;;22.22;100.00;99666.00;5062694;28;20214;-72
2022/05/30 06:53:08;;;;;;;8.90;7.93;;;;;;;22.28;100.00;99669.34;5069398;28;20268;-73
2022/05/30 06:55:35;;;;;;;10.75;7.63;;;;;;;21.96;100.00;99616.00;5053971;28;20208;-72
2022/05/30 06:58:14;;;;;;;8.88;6.85;;;;;;;22.26;100.00;99665.91;5032393;28;20204;-72
2022/05/30 07:00:42;;;;;;;11.48;6.97;;;;;;;22.85;100.00;99688.19;5062318;28;20203;-72
2022/05/30 07:03:09;;;;;;;15.95;8.15;;;;;;;23.04;100.00;99688.28;5070188;28;20231;-72
2022/05/30 07:05:35;;;;;;;13.07;8.15;;;;;;;22.67;100.00;99691.56;5057110;28;20196;-72
2022/05/30 07:08:02;;;;;;;8.30;7.00;;;;;;;22.89;100.00;99695.06;5066365;28;20325;-72
2022/05/30 07:10:31;;;;;;;10.45;7.47;;;;;;;22.43;100.00;99688.13;5061373;28;20208;-71
2022/05/30 07:12:58;;;;;;;10.38;7.72;;;;;;;22.39;100.00;99688.28;5032734;28;20956;-70
2022/05/30 07:15:25;;;;;;;9.13;7.65;;;;;;;22.50;100.00;99634.09;5028222;28;20195;-70
2022/05/30 07:17:52;;;;;;;12.43;7.68;;;;;;;23.14;100.00;99702.84;5051163;28;20215;-70
2022/05/30 07:20:19;;;;;;;9.02;6.90;;;;;;;23.19;100.00;99709.63;5043886;28;20665;-71
2022/05/30 07:22:46;;;;;;;12.30;7.50;;;;;;;23.10;100.00;99707.41;5069774;28;20230;-70
2022/05/30 07:25:13;;;;;;;8.15;7.10;;;;;;;22.85;100.00;99708.47;5068894;28;20195;-71
2022/05/30 07:27:42;;;;;;;8.65;6.68;;;;;;;22.44;100.00;99710.13;5070890;28;20207;-71
2022/05/30 07:30:10;;;;;;;12.38;7.80;;;;;;;22.48;100.00;99703.75;5068653;28;20207;-71
2022/05/30 07:32:36;;;;;;;12.13;7.40;;;;;;;21.98;100.00;99688.09;5064791;28;20763;-71
2022/05/30 07:35:04;;;;;;;9.95;7.93;;;;;;;22.19;100.00;99708.41;5017801;28;20254;-71
2022/05/30 07:37:31;;;;;;;12.07;7.00;;;;;;;22.11;100.00;99705.22;5055071;28;20273;-73
2022/05/30 07:39:58;;;;;;;10.50;7.40;;;;;;;22.35;100.00;99713.09;5085352;28;20207;-72
2022/05/30 07:42:24;;;;;;;9.23;7.20;;;;;;;22.90;100.00;99723.22;5018663;28;20222;-73
2022/05/30 07:44:53;;;;;;;10.85;7.38;;;;;;;23.42;100.00;99731.66;5046290;28;20606;-73
2022/05/30 07:47:20;;;;;;;8.80;6.32;;;;;;;23.59;100.00;99730.00;5061804;28;20226;-73
2022/05/30 07:49:47;;;;;;;6.43;5.63;;;;;;;23.76;100.00;99746.94;5063915;28;20211;-73
2022/05/30 07:52:14;;;;;;;14.82;8.15;;;;;;;23.30;100.00;99738.28;5060865;28;20203;-73
2022/05/30 07:54:41;;;;;;;10.95;6.57;;;;;;;23.59;100.00;99750.31;5056935;28;20279;-73
2022/05/30 07:57:08;;;;;;;6.22;5.32;;;;;;;23.51;100.00;99757.72;5051750;28;20198;-73
2022/05/30 07:59:36;;;;;;;11.88;7.25;;;;;;;23.32;100.00;99754.09;5054395;28;20274;-73
2022/05/30 08:02:05;;;;;;;8.07;6.43;;;;;;;23.53;100.00;99753.22;5033455;28;20298;-73
2022/05/30 08:04:32;;;;;;;6.43;5.68;;;;;;;23.39;100.00;99763.50;5051748;28;20195;-72
2022/05/30 08:06:58;;;;;;;7.20;6.28;;;;;;;23.50;100.00;99753.38;5062917;28;20198;-73
2022/05/30 08:09:25;;;;;;;6.53;5.80;;;;;;;23.17;100.00;99752.97;5066883;28;20281;-73
2022/05/30 08:11:52;;;;;;;6.10;5.50;;;;;;;23.29;100.00;99762.19;5066371;28;20647;-73
2022/05/30 08:14:19;;;;;;;9.18;6.15;;;;;;;22.76;100.00;99752.00;5070690;28;20671;-73
2022/05/30 08:16:46;;;;;;;9.18;6.10;;;;;;;22.73;100.00;99747.69;5070926;28;20225;-73
2022/05/30 08:19:14;;;;;;;10.63;5.28;;;;;;;23.20;100.00;99768.69;5070724;28;20202;-74
2022/05/30 08:21:41;;;;;;;5.70;5.03;;;;;;;23.74;100.00;99762.03;5070649;28;20698;-73
2022/05/30 08:24:08;;;;;;;5.07;4.55;;;;;;;23.62;100.00;99766.91;5070732;28;20199;-74
2022/05/30 08:26:35;;;;;;;5.63;5.05;;;;;;;23.49;100.00;99776.31;5063432;28;20201;-74
2022/05/30 08:29:02;;;;;;;6.75;4.78;;;;;;;23.33;100.00;99780.50;5068600;28;20289;-73
2022/05/30 08:31:29;;;;;;;8.75;5.07;;;;;;;23.39;100.00;99768.81;5064910;28;20214;-74
2022/05/30 08:33:55;;;;;;;6.55;4.72;;;;;;;23.92;100.00;99783.25;5056292;28;20199;-74
2022/05/30 08:36:24;;;;;;;9.32;4.75;;;;;;;24.27;100.00;99786.13;5025058;28;20199;-72
2022/05/30 08:41:46;;;;;;;8.43;3.95;;;;;;;24.42;100.00;99786.31;5058762;28;20223;-71
2022/05/30 08:41:48;;;;;;;3.97;3.63;;;;;;;23.94;100.00;99804.38;5069822;28;20240;-72
2022/05/30 08:44:16;;;;;;;5.05;3.72;;;;;;;23.96;100.00;99803.38;5064440;28;20282;-72
2022/05/30 08:46:55;;;;;;;4.38;3.90;;;;;;;23.55;100.00;99799.88;5064657;28;20595;-72
2022/05/30 08:49:26;;;;;;;7.15;3.67;;;;;;;23.37;100.00;99760.06;5057333;28;20265;-73
2022/05/30 08:52:10;;;;;;;6.78;3.70;;;;;;;23.48;100.00;99801.06;5056125;28;20202;-73
2022/05/30 08:54:55;;;;;;;3.70;3.35;;;;;;;23.37;100.00;99799.75;5059146;28;20195;-74
2022/05/30 08:57:36;;;;;;;4.95;4.15;;;;;;;23.70;100.00;99787.78;5069796;28;20655;-73
2022/05/30 09:00:10;;;;;;;4.45;4.05;;;;;;;23.59;100.00;99787.38;5065653;28;20207;-72
2022/05/30 09:02:43;;;;;;;3.85;3.58;;;;;;;23.62;100.00;99800.47;5061176;28;20228;-72
2022/05/30 09:05:14;;;;;;;6.15;4.15;;;;;;;23.63;100.00;99789.81;5054315;28;20206;-71
2022/05/30 09:07:49;;;;;;;3.75;3.45;;;;;;;23.84;100.00;99808.34;5050198;28;20227;-74
2022/05/30 09:10:22;;;;;;;5.40;3.47;;;;;;;24.28;100.00;99804.63;5053894;28;20623;-73
2022/05/30 09:12:54;;;;;;;4.07;3.55;;;;;;;24.53;100.00;99810.53;5068021;28;20207;-73
2022/05/30 09:15:25;;;;;;;6.68;3.63;;;;;;;24.35;100.00;99799.91;5067992;28;20205;-73
2022/05/30 09:17:57;;;;;;;5.95;4.25;;;;;;;24.53;100.00;99821.13;5063891;28;20661;-73
2022/05/30 09:20:25;;;;;;;7.00;3.75;;;;;;;25.00;100.00;99820.72;5062289;28;20206;-74
2022/05/30 09:22:53;;;;;;;5.65;3.60;;;;;;;24.53;100.00;99789.31;5023172;28;20790;-71
2022/05/30 09:28:19;;;;;;;4.90;3.97;;;;;;;25.25;100.00;99829.22;5027068;28;20231;-73
2022/05/30 09:30:56;;;;;;;6.05;4.45;;;;;;;24.92;100.00;99823.75;5007265;28;20204;-73
2022/05/30 09:33:30;;;;;;;3.63;3.25;;;;;;;24.76;100.00;99825.34;5025132;28;20697;-72
2022/05/30 09:36:13;;;;;;;6.15;3.55;;;;;;;24.79;100.00;99822.59;5027120;28;20214;-73
2022/05/30 09:38:47;;;;;;;6.43;3.65;;;;;;;24.95;100.00;99823.59;5025790;28;20561;-71
2022/05/30 09:41:18;;;;;;;5.53;4.25;;;;;;;24.70;100.00;99833.59;5014939;28;20294;-70
2022/05/30 09:43:50;;;;;;;4.28;3.88;;;;;;;24.86;100.00;99836.44;5026950;28;20228;-70
2022/05/30 09:46:22;;;;;;;6.75;4.35;;;;;;;25.04;100.00;99839.06;5025720;28;20378;-71
2022/05/30 09:49:05;;;;;;;3.92;3.33;;;;;;;25.75;100.00;99832.03;5014132;28;20197;-71
2022/05/30 09:51:35;;;;;;;3.78;3.42;;;;;;;25.98;96.83;99838.78;5010289;28;20200;-71
2022/05/30 09:54:04;;;;;;;10.60;3.38;;;;;;;25.91;92.87;99838.25;5007250;28;20212;-71
2022/05/30 09:56:35;;;;;;;3.67;3.33;;;;;;;26.06;91.69;99848.09;5012997;28;20734;-70
2022/05/30 09:59:07;;;;;;;3.25;2.80;;;;;;;25.93;90.66;99854.13;5026917;28;20200;-70
2022/05/30 10:01:37;;;;;;;4.28;3.53;;;;;;;25.49;87.59;99813.84;5026813;28;20200;-70
2022/05/30 10:04:17;;;;;;;8.65;3.60;;;;;;;26.37;86.53;99855.34;5046968;28;20619;-72
2022/05/30 10:07:05;;;;;;;5.40;3.15;;;;;;;25.90;84.67;99856.94;5069220;28;20195;-71
2022/05/30 10:09:34;;;;;;;5.00;3.65;;;;;;;25.86;87.58;99853.59;5054673;28;20627;-72
2022/05/30 10:12:02;;;;;;;3.78;3.10;;;;;;;25.73;88.68;99849.81;5069364;28;20532;-71
2022/05/30 10:14:32;;;;;;;3.60;3.30;;;;;;;26.12;89.52;99831.81;5069028;28;20198;-72
2022/05/30 10:17:11;;;;;;;9.80;3.45;;;;;;;27.20;80.64;99843.69;5049191;28;20196;-71
2022/05/30 10:19:42;;;;;;;7.50;3.30;;;;;;;27.50;75.92;99850.78;5049097;28;20675;-71
2022/05/30 10:28:17;;;;;;;4.10;3.25;;;;;;;27.33;78.76;99829.56;5048993;28;20245;-70
2022/05/30 10:30:55;;;;;;;4.07;3.15;;;;;;;27.21;77.82;99843.63;5049254;28;20198;-70
2022/05/30 10:33:34;;;;;;;3.45;2.75;;;;;;;26.66;80.76;99848.44;5048990;28;20202;-69
2022/05/30 10:36:14;;;;;;;3.08;2.88;;;;;;;26.74;80.69;99848.03;5048892;28;20698;-71
2022/05/30 10:38:57;;;;;;;5.72;3.15;;;;;;;26.90;76.17;99847.13;5048900;28;20208;-70
2022/05/30 10:41:34;;;;;;;4.32;3.50;;;;;;;26.57;77.21;99849.81;5048996;28;20195;-71
2022/05/30 10:44:09;;;;;;;3.83;2.80;;;;;;;25.71;82.77;99833.13;5030993;28;20746;-71
2022/05/30 10:46:43;;;;;;;3.88;2.97;;;;;;;26.03;80.32;99850.91;5048724;28;20199;-71
2022/05/30 10:49:13;;;;;;;4.00;2.85;;;;;;;25.73;82.68;99849.81;5048831;28;20204;-70
2022/05/30 10:51:52;;;;;;;4.60;2.95;;;;;;;26.08;85.92;99840.03;5049236;28;20195;-70
2022/05/30 10:54:26;;;;;;;5.28;2.90;;;;;;;26.59;80.78;99855.03;5052826;28;20483;-70
2022/05/30 10:57:02;;;;;;;5.32;2.92;;;;;;;26.75;79.97;99841.78;5052519;28;20203;-72
2022/05/30 10:59:35;;;;;;;4.63;3.03;;;;;;;26.65;82.30;99852.03;5052232;28;20672;-70
2022/05/30 11:02:07;;;;;;;3.55;3.25;;;;;;;26.74;79.56;99842.72;5052175;28;20203;-70
2022/05/30 11:04:42;;;;;;;3.50;2.97;;;;;;;27.06;77.05;99831.16;5052401;28;20257;-71
2022/05/30 11:07:29;;;;;;;5.63;3.50;;;;;;;27.07;82.04;99822.25;5052217;28;20198;-71
2022/05/30 11:10:05;;;;;;;5.03;2.90;;;;;;;27.42;74.72;99845.03;5064574;28;20686;-70
2022/05/30 11:12:39;;;;;;;3.90;3.60;;;;;;;27.39;73.02;99834.56;5072297;28;20209;-70
2022/05/30 11:15:12;;;;;;;6.25;3.20;;;;;;;26.61;73.34;99781.38;5072079;28;20199;-70
2022/05/30 11:17:43;;;;;;;2.42;2.05;;;;;;;26.53;72.49;99837.63;5072553;28;20583;-70
2022/05/30 11:20:14;;;;;;;7.90;3.53;;;;;;;26.00;78.74;99839.59;5053298;28;20202;-70
2022/05/30 11:22:43;;;;;;;3.17;2.97;;;;;;;26.30;76.15;99847.75;5053043;28;20222;-71
2022/05/30 11:25:14;;;;;;;4.80;3.20;;;;;;;26.01;79.40;99833.31;5071794;28;20722;-71
2022/05/30 11:27:44;;;;;;;7.50;3.58;;;;;;;26.35;78.81;99843.94;5071690;28;20198;-70
2022/05/30 11:30:35;;;;;;;3.17;2.92;;;;;;;26.36;78.78;99831.50;5071756;28;20206;-70
2022/05/30 11:33:39;;;;;;;3.30;3.03;;;;;;;26.15;80.31;99830.78;5071425;28;20293;-70
2022/05/30 11:36:30;;;;;;;4.28;3.20;;;;;;;25.74;84.49;99829.44;5071831;28;20210;-71
2022/05/30 11:39:09;;;;;;;4.47;3.50;;;;;;;25.75;85.62;99825.84;5071745;28;20209;-71
2022/05/30 11:41:51;;;;;;;4.80;3.40;;;;;;;26.02;94.98;99825.28;5071663;28;20198;-70
2022/05/30 11:44:40;;;;;;;3.78;3.45;;;;;;;26.12;91.96;99829.16;5071441;28;20233;-71
2022/05/30 11:47:20;;;;;;;4.05;3.03;;;;;;;26.13;88.00;99827.38;5071402;28;20269;-71
2022/05/30 11:49:55;;;;;;;5.28;3.08;;;;;;;25.99;89.36;99825.44;5052593;28;20210;-71
2022/05/30 11:52:31;;;;;;;5.50;2.88;;;;;;;26.07;86.49;99815.28;5071453;28;20202;-71
2022/05/30 11:55:07;;;;;;;3.53;2.97;;;;;;;26.17;82.70;99823.63;5071589;28;20198;-70
2022/05/30 11:57:38;;;;;;;2.95;2.75;;;;;;;26.18;80.38;99819.19;5071453;28;20677;-70